Time;durP1;ratioP1;P1;durP2;ratioP2;P2;SDS_P1;SDS_P2;PMS_P1;PMS_P2;Temp;Humidity;BMP_temperature;BMP_pressure;BME280_temperature;BME280_humidity;BME280_pressure;Samples;Min_cycle;Max_cycle;Signal;HPM_P1;HPM_P2
2021/10/07 00:00:54;;;;;;;4.80;1.70;;;;;;;;;;10378267;28;20466;-81
2021/10/07 00:05:54;;;;;;;6.18;1.50;;;;;;;;;;10378967;28;20786;-83
2021/10/07 00:10:54;;;;;;;5.93;1.60;;;;;;;;;;10378330;28;20460;-83
2021/10/07 00:15:55;;;;;;;8.03;1.50;;;;;;;;;;10378338;28;20077;-83
2021/10/07 00:20:56;;;;;;;3.85;1.45;;;;;;;;;;10377525;28;20072;-82
2021/10/07 00:25:56;;;;;;;11.43;1.80;;;;;;;;;;10377715;28;20105;-79
2021/10/07 00:30:59;;;;;;;5.10;1.43;;;;;;;;;;10376888;28;20029;-82
2021/10/07 00:36:12;;;;;;;4.43;1.25;;;;;;;;;;10377473;28;20116;-83
2021/10/07 00:41:12;;;;;;;2.58;1.25;;;;;;;;;;10377023;28;20036;-82
2021/10/07 00:46:12;;;;;;;3.67;1.60;;;;;;;;;;10377797;28;20050;-82
2021/10/07 00:51:13;;;;;;;5.63;1.53;;;;;;;;;;10377385;28;20034;-82
2021/10/07 00:56:18;;;;;;;4.03;1.50;;;;;;;;;;10376745;28;20057;-82
2021/10/07 01:01:19;;;;;;;3.00;1.50;;;;;;;;;;10376099;28;20028;-81
2021/10/07 01:06:20;;;;;;;6.93;1.55;;;;;;;;;;10376435;28;20395;-81
2021/10/07 01:11:20;;;;;;;5.32;2.00;;;;;;;;;;10375203;28;20041;-82
2021/10/07 01:16:20;;;;;;;4.77;1.53;;;;;;;;;;10376154;28;20347;-82
2021/10/07 01:21:21;;;;;;;2.83;1.33;;;;;;;;;;10375817;28;20037;-82
2021/10/07 01:26:22;;;;;;;5.45;1.35;;;;;;;;;;10375790;28;20026;-82
2021/10/07 01:31:22;;;;;;;2.33;1.30;;;;;;;;;;10375230;28;20443;-82
2021/10/07 01:36:22;;;;;;;2.93;1.47;;;;;;;;;;10375017;28;20026;-81
2021/10/07 01:41:23;;;;;;;3.37;1.13;;;;;;;;;;10374904;28;20440;-81
2021/10/07 01:46:23;;;;;;;3.77;1.20;;;;;;;;;;10374261;28;20045;-80
2021/10/07 01:51:24;;;;;;;5.67;1.23;;;;;;;;;;10374860;28;20057;-82
2021/10/07 01:56:24;;;;;;;2.97;1.15;;;;;;;;;;10374852;28;20025;-82
2021/10/07 02:01:25;;;;;;;2.22;1.02;;;;;;;;;;10374352;28;20139;-82
2021/10/07 02:06:25;;;;;;;4.95;1.60;;;;;;;;;;10373737;28;20052;-82
2021/10/07 02:11:25;;;;;;;3.70;1.20;;;;;;;;;;10374329;28;20034;-82
2021/10/07 02:16:28;;;;;;;3.47;1.13;;;;;;;;;;10372816;28;20455;-83
2021/10/07 02:21:29;;;;;;;7.80;1.52;;;;;;;;;;10376581;28;20457;-80
2021/10/07 02:26:29;;;;;;;4.13;1.30;;;;;;;;;;10381954;28;20448;-82
2021/10/07 02:31:29;;;;;;;2.80;1.35;;;;;;;;;;10377377;28;20026;-83
2021/10/07 02:36:30;;;;;;;4.97;1.47;;;;;;;;;;10382158;28;20532;-83
2021/10/07 02:41:31;;;;;;;3.63;1.10;;;;;;;;;;10380823;28;20527;-81
2021/10/07 02:46:31;;;;;;;3.75;1.38;;;;;;;;;;10382278;28;20053;-82
2021/10/07 02:51:32;;;;;;;6.07;1.45;;;;;;;;;;10381464;28;20368;-80
2021/10/07 02:56:32;;;;;;;6.40;1.30;;;;;;;;;;10381554;28;20017;-81
2021/10/07 03:01:33;;;;;;;2.10;1.00;;;;;;;;;;10381001;28;20376;-80
2021/10/07 03:06:33;;;;;;;6.80;1.00;;;;;;;;;;10381211;28;20038;-81
2021/10/07 03:11:34;;;;;;;1.73;0.90;;;;;;;;;;10381222;28;20040;-79
2021/10/07 03:16:35;;;;;;;2.90;1.00;;;;;;;;;;10380494;28;20486;-82
2021/10/07 03:21:37;;;;;;;3.58;1.00;;;;;;;;;;10380440;28;20014;-81
2021/10/07 03:26:38;;;;;;;2.85;1.17;;;;;;;;;;10380313;28;20026;-81
2021/10/07 03:31:38;;;;;;;2.83;1.05;;;;;;;;;;10379842;28;20038;-79
2021/10/07 03:36:39;;;;;;;1.25;0.90;;;;;;;;;;10365314;28;20029;-79
2021/10/07 03:41:40;;;;;;;2.40;1.05;;;;;;;;;;10379594;28;20204;-80
2021/10/07 03:46:40;;;;;;;2.55;1.02;;;;;;;;;;10379834;28;20132;-81
2021/10/07 03:51:41;;;;;;;2.70;1.00;;;;;;;;;;10379302;28;20017;-80
2021/10/07 03:56:41;;;;;;;1.37;1.00;;;;;;;;;;10364826;28;20530;-80
2021/10/07 04:01:41;;;;;;;2.17;0.90;;;;;;;;;;10378536;28;20436;-78
2021/10/07 04:06:42;;;;;;;3.15;1.05;;;;;;;;;;10364784;28;20379;-80
2021/10/07 04:11:42;;;;;;;1.27;0.87;;;;;;;;;;10378029;28;20172;-80
2021/10/07 04:16:43;;;;;;;4.88;1.20;;;;;;;;;;10376518;28;20550;-80
2021/10/07 04:21:43;;;;;;;2.33;0.97;;;;;;;;;;10378221;28;20092;-80
2021/10/07 04:26:44;;;;;;;2.67;1.05;;;;;;;;;;10363794;28;20482;-79
2021/10/07 04:31:44;;;;;;;2.75;1.25;;;;;;;;;;10378155;28;20030;-79
2021/10/07 04:36:44;;;;;;;2.38;1.23;;;;;;;;;;10377233;28;20053;-79
2021/10/07 04:41:45;;;;;;;4.72;1.30;;;;;;;;;;10376793;28;20435;-79
2021/10/07 04:46:45;;;;;;;4.32;2.15;;;;;;;;;;10369870;28;20384;-79
2021/10/07 04:51:46;;;;;;;2.50;1.70;;;;;;;;;;10369196;28;20022;-80
2021/10/07 04:56:46;;;;;;;3.10;1.20;;;;;;;;;;10376309;28;20972;-81
2021/10/07 05:01:47;;;;;;;1.35;1.05;;;;;;;;;;10375599;28;20067;-80
2021/10/07 05:06:47;;;;;;;1.83;1.10;;;;;;;;;;10376006;28;20022;-80
2021/10/07 05:11:47;;;;;;;2.57;1.10;;;;;;;;;;10375973;28;20474;-81
2021/10/07 05:16:48;;;;;;;4.10;0.98;;;;;;;;;;10374889;28;20026;-80
2021/10/07 05:21:48;;;;;;;3.37;1.10;;;;;;;;;;10365031;28;20120;-83
2021/10/07 05:26:48;;;;;;;2.73;1.40;;;;;;;;;;10371665;28;20030;-85
2021/10/07 05:31:49;;;;;;;2.20;1.00;;;;;;;;;;10375567;28;20033;-82
2021/10/07 05:36:50;;;;;;;1.63;0.77;;;;;;;;;;10371309;28;20032;-83
2021/10/07 05:41:50;;;;;;;2.83;1.17;;;;;;;;;;10366291;28;20041;-82
2021/10/07 05:46:50;;;;;;;1.40;1.10;;;;;;;;;;10368897;28;20848;-85
2021/10/07 05:51:51;;;;;;;4.53;1.17;;;;;;;;;;10369225;28;20109;-89
2021/10/07 05:56:51;;;;;;;3.20;1.30;;;;;;;;;;10361413;28;20030;-85
2021/10/07 06:01:52;;;;;;;18.70;1.20;;;;;;;;;;10371340;28;20109;-83
2021/10/07 06:06:52;;;;;;;5.88;1.10;;;;;;;;;;10365569;28;20601;-84
2021/10/07 06:11:54;;;;;;;8.20;1.70;;;;;;;;;;10371187;28;20128;-85
2021/10/07 06:16:54;;;;;;;3.77;1.07;;;;;;;;;;10372310;28;20037;-83
2021/10/07 06:21:55;;;;;;;3.03;0.90;;;;;;;;;;10372895;28;20022;-81
2021/10/07 06:26:55;;;;;;;3.97;1.10;;;;;;;;;;10373044;28;20455;-80
2021/10/07 06:31:55;;;;;;;6.53;1.10;;;;;;;;;;10379105;28;20037;-78
2021/10/07 06:36:56;;;;;;;2.22;1.05;;;;;;;;;;10381061;28;20109;-80
2021/10/07 06:41:56;;;;;;;5.73;1.07;;;;;;;;;;10375061;28;20030;-80
2021/10/07 06:46:57;;;;;;;3.95;1.15;;;;;;;;;;10370865;28;20117;-80
2021/10/07 06:51:57;;;;;;;3.83;1.20;;;;;;;;;;10373569;28;20038;-81
2021/10/07 06:56:57;;;;;;;8.02;1.05;;;;;;;;;;10373194;28;20026;-80
2021/10/07 07:01:58;;;;;;;3.10;1.47;;;;;;;;;;10372470;28;20435;-82
2021/10/07 07:06:58;;;;;;;4.55;1.33;;;;;;;;;;10373217;28;20444;-80
2021/10/07 07:11:59;;;;;;;3.67;1.40;;;;;;;;;;10379317;28;20457;-81
2021/10/07 07:17:00;;;;;;;3.60;1.20;;;;;;;;;;10380691;28;20452;-80
2021/10/07 07:22:02;;;;;;;2.72;1.00;;;;;;;;;;10379755;28;20083;-81
2021/10/07 07:27:03;;;;;;;6.68;1.48;;;;;;;;;;10379743;28;20041;-81
2021/10/07 07:32:04;;;;;;;3.47;1.13;;;;;;;;;;10380030;28;20128;-79
2021/10/07 07:37:04;;;;;;;2.13;0.93;;;;;;;;;;10378971;28;20822;-80
2021/10/07 07:42:05;;;;;;;4.55;1.20;;;;;;;;;;10387588;23;20034;-81
2021/10/07 07:47:05;;;;;;;1.17;0.90;;;;;;;;;;10377766;28;20053;-81
2021/10/07 07:52:06;;;;;;;4.50;0.95;;;;;;;;;;10379114;28;20454;-81
2021/10/07 07:57:07;;;;;;;2.20;0.93;;;;;;;;;;10378783;28;20029;-80
2021/10/07 08:02:08;;;;;;;4.03;1.10;;;;;;;;;;10379108;28;20090;-80
2021/10/07 08:07:08;;;;;;;1.17;0.98;;;;;;;;;;10378596;28;20108;-81
2021/10/07 08:12:12;;;;;;;1.98;1.23;;;;;;;;;;10377648;28;20064;-80
2021/10/07 08:17:14;;;;;;;2.00;1.35;;;;;;;;;;10378313;28;20069;-81
2021/10/07 08:22:15;;;;;;;2.95;1.10;;;;;;;;;;10377561;28;20034;-80
2021/10/07 08:27:15;;;;;;;2.00;0.98;;;;;;;;;;10377825;28;20037;-80
2021/10/07 08:32:16;;;;;;;3.00;1.00;;;;;;;;;;10377088;28;20034;-80
2021/10/07 08:37:16;;;;;;;2.00;1.17;;;;;;;;;;10377783;28;20042;-80
2021/10/07 08:42:17;;;;;;;2.72;0.90;;;;;;;;;;10376422;28;20109;-80
2021/10/07 08:47:19;;;;;;;4.07;1.23;;;;;;;;;;10377137;28;20431;-80
2021/10/07 08:52:20;;;;;;;2.65;0.80;;;;;;;;;;10376399;28;20104;-80
2021/10/07 08:57:21;;;;;;;2.25;1.17;;;;;;;;;;10375473;28;20448;-80
2021/10/07 09:02:27;;;;;;;1.63;0.73;;;;;;;;;;10376511;28;20026;-86
2021/10/07 09:07:27;;;;;;;1.98;0.80;;;;;;;;;;10377051;28;20111;-86
2021/10/07 09:12:29;;;;;;;1.38;0.73;;;;;;;;;;10375589;28;20116;-87
2021/10/07 09:17:29;;;;;;;2.22;0.80;;;;;;;;;;10375893;28;20374;-87
2021/10/07 09:22:33;;;;;;;2.13;0.85;;;;;;;;;;10360694;28;20030;-86
2021/10/07 09:27:35;;;;;;;1.50;0.85;;;;;;;;;;10375006;28;20026;-86
2021/10/07 09:32:41;;;;;;;1.23;0.60;;;;;;;;;;10375752;28;20030;-86
2021/10/07 09:37:44;;;;;;;1.60;0.77;;;;;;;;;;10375281;28;20476;-86
2021/10/07 09:42:47;;;;;;;1.05;0.80;;;;;;;;;;10374626;28;20042;-85
2021/10/07 09:47:53;;;;;;;2.40;0.88;;;;;;;;;;10374499;28;20476;-86
2021/10/07 09:53:06;;;;;;;1.10;0.70;;;;;;;;;;10374475;28;20026;-85
2021/10/07 09:58:12;;;;;;;4.03;1.42;;;;;;;;;;10374722;28;20057;-87
2021/10/07 10:03:17;;;;;;;2.67;1.20;;;;;;;;;;10374428;28;20503;-86
2021/10/07 10:08:19;;;;;;;1.02;0.82;;;;;;;;;;10374610;28;20034;-86
2021/10/07 10:13:20;;;;;;;1.55;1.00;;;;;;;;;;10374465;28;20040;-86
2021/10/07 10:18:20;;;;;;;5.43;0.95;;;;;;;;;;10374338;28;20040;-88
2021/10/07 10:23:25;;;;;;;2.97;0.90;;;;;;;;;;10373754;28;20103;-87
2021/10/07 10:28:29;;;;;;;3.72;1.10;;;;;;;;;;10373910;28;20037;-87
2021/10/07 10:33:32;;;;;;;1.45;0.80;;;;;;;;;;10373561;28;20097;-87
2021/10/07 10:38:39;;;;;;;2.47;0.70;;;;;;;;;;10373764;28;20050;-87
2021/10/07 10:43:40;;;;;;;0.70;0.70;;;;;;;;;;10377432;28;20061;-88
2021/10/07 10:48:40;;;;;;;1.35;0.68;;;;;;;;;;10381830;28;20468;-87
2021/10/07 10:54:19;;;;;;;1.23;0.80;;;;;;;;;;10381039;28;20030;-88
2021/10/07 10:59:21;;;;;;;2.15;0.73;;;;;;;;;;10279303;28;20691;-88
2021/10/07 11:04:44;;;;;;;0.65;0.65;;;;;;;;;;10295664;28;20035;-87
2021/10/07 11:10:03;;;;;;;1.98;0.95;;;;;;;;;;10295619;28;20069;-88
2021/10/07 11:15:06;;;;;;;1.33;0.70;;;;;;;;;;10294995;28;20042;-88
2021/10/07 11:20:09;;;;;;;1.35;0.77;;;;;;;;;;10294673;28;20038;-85
2021/10/07 11:25:10;;;;;;;1.38;0.60;;;;;;;;;;10295080;28;20078;-84
2021/10/07 11:30:16;;;;;;;1.95;0.80;;;;;;;;;;10359676;28;20053;-90
2021/10/07 11:35:19;;;;;;;1.08;0.90;;;;;;;;;;10380035;28;20049;-84
2021/10/07 11:40:23;;;;;;;0.75;0.70;;;;;;;;;;10378995;28;20069;-88
2021/10/07 11:45:33;;;;;;;1.13;0.77;;;;;;;;;;10379590;28;20056;-88
2021/10/07 11:50:38;;;;;;;0.98;0.65;;;;;;;;;;10379520;28;20104;-88
2021/10/07 11:55:43;;;;;;;1.38;0.80;;;;;;;;;;10380391;28;20030;-89
2021/10/07 12:00:46;;;;;;;4.25;0.93;;;;;;;;;;10364380;28;20033;-88
2021/10/07 12:05:53;;;;;;;1.83;1.00;;;;;;;;;;10378189;28;20491;-88
2021/10/07 12:11:06;;;;;;;2.80;1.00;;;;;;;;;;10373250;28;20033;-88
2021/10/07 12:16:16;;;;;;;1.92;0.88;;;;;;;;;;10366968;28;20121;-86
2021/10/07 12:21:19;;;;;;;3.63;0.90;;;;;;;;;;10370249;28;20081;-89
2021/10/07 12:26:26;;;;;;;0.75;0.70;;;;;;;;;;10370870;28;20065;-86
2021/10/07 12:31:31;;;;;;;0.90;0.60;;;;;;;;;;10374924;28;20044;-83
2021/10/07 12:36:43;;;;;;;6.25;0.73;;;;;;;;;;10359484;28;20033;-82
2021/10/07 12:41:44;;;;;;;1.20;0.70;;;;;;;;;;10371040;28;20034;-83
2021/10/07 12:46:47;;;;;;;3.23;0.93;;;;;;;;;;10373317;28;20188;-83
2021/10/07 12:51:48;;;;;;;3.50;0.80;;;;;;;;;;10345041;28;20457;-88
2021/10/07 12:56:48;;;;;;;1.52;1.00;;;;;;;;;;10344228;28;20044;-89
2021/10/07 13:01:49;;;;;;;3.47;0.70;;;;;;;;;;10348291;28;20101;-89
2021/10/07 13:06:54;;;;;;;3.47;1.20;;;;;;;;;;10375236;28;20538;-85
2021/10/07 13:11:54;;;;;;;45.35;2.00;;;;;;;;;;10366637;28;20051;-86
2021/10/07 13:16:54;;;;;;;69.80;5.60;;;;;;;;;;10375881;28;20443;-81
2021/10/07 13:21:55;;;;;;;44.73;3.77;;;;;;;;;;10375919;28;20040;-81
2021/10/07 13:27:02;;;;;;;39.93;3.27;;;;;;;;;;10375155;28;20113;-80
2021/10/07 13:32:03;;;;;;;15.88;2.35;;;;;;;;;;10375604;28;20030;-83
2021/10/07 13:37:03;;;;;;;12.18;1.45;;;;;;;;;;10373293;28;20033;-84
2021/10/07 13:42:04;;;;;;;11.73;1.60;;;;;;;;;;10373177;28;20029;-83
2021/10/07 13:47:04;;;;;;;14.75;1.98;;;;;;;;;;10373511;28;20089;-84
2021/10/07 13:52:05;;;;;;;11.50;1.73;;;;;;;;;;10373691;28;20030;-83
2021/10/07 13:57:05;;;;;;;5.07;1.33;;;;;;;;;;10372333;28;20026;-84
2021/10/07 14:02:06;;;;;;;8.23;1.75;;;;;;;;;;10373774;28;20021;-84
2021/10/07 14:07:06;;;;;;;13.93;1.57;;;;;;;;;;10373058;28;20487;-84
2021/10/07 14:12:07;;;;;;;11.25;1.50;;;;;;;;;;10372757;28;20064;-86
2021/10/07 14:17:08;;;;;;;11.80;1.50;;;;;;;;;;10373361;28;20109;-86
2021/10/07 14:22:08;;;;;;;6.20;1.40;;;;;;;;;;10372840;28;20112;-83
2021/10/07 14:27:09;;;;;;;8.35;1.23;;;;;;;;;;10373968;28;20067;-82
2021/10/07 14:32:09;;;;;;;10.68;1.45;;;;;;;;;;10369407;28;20128;-83
2021/10/07 14:37:10;;;;;;;11.90;2.03;;;;;;;;;;10374377;28;20041;-83
2021/10/07 14:42:11;;;;;;;7.22;1.30;;;;;;;;;;10372893;28;20057;-85
2021/10/07 14:47:11;;;;;;;6.20;1.50;;;;;;;;;;10373018;28;20042;-83
2021/10/07 14:52:13;;;;;;;10.43;1.73;;;;;;;;;;10373779;28;20108;-83
2021/10/07 14:57:13;;;;;;;5.00;1.00;;;;;;;;;;10373745;28;20452;-84
2021/10/07 15:02:14;;;;;;;4.75;1.30;;;;;;;;;;10373128;28;20109;-83
2021/10/07 15:07:14;;;;;;;6.03;1.27;;;;;;;;;;10372895;28;20092;-83
2021/10/07 15:12:15;;;;;;;4.25;1.10;;;;;;;;;;10373411;28;20050;-83
2021/10/07 15:17:15;;;;;;;10.53;1.53;;;;;;;;;;10373485;28;20084;-84
2021/10/07 15:22:17;;;;;;;13.23;1.65;;;;;;;;;;10359621;28;20543;-85
2021/10/07 15:27:17;;;;;;;6.35;1.10;;;;;;;;;;10372278;28;20061;-84
2021/10/07 15:32:18;;;;;;;5.03;1.08;;;;;;;;;;10378853;28;20033;-83
2021/10/07 15:37:18;;;;;;;4.50;1.10;;;;;;;;;;10380472;28;20376;-83
2021/10/07 15:42:18;;;;;;;3.93;1.20;;;;;;;;;;10365282;28;20128;-83
2021/10/07 15:47:19;;;;;;;4.97;1.08;;;;;;;;;;10379790;28;20041;-83
2021/10/07 15:52:21;;;;;;;4.27;1.07;;;;;;;;;;10380045;28;20038;-83
2021/10/07 15:57:23;;;;;;;3.28;1.17;;;;;;;;;;10379518;28;20061;-82
2021/10/07 16:02:23;;;;;;;1.35;1.10;;;;;;;;;;10378497;28;20033;-83
2021/10/07 16:07:24;;;;;;;2.25;0.85;;;;;;;;;;10379256;28;20025;-83
2021/10/07 16:12:25;;;;;;;5.63;1.00;;;;;;;;;;10378342;28;20036;-83
2021/10/07 16:17:25;;;;;;;3.03;1.10;;;;;;;;;;10377701;28;20088;-84
2021/10/07 16:22:25;;;;;;;0.83;0.80;;;;;;;;;;10385930;28;20034;-84
2021/10/07 16:27:26;;;;;;;6.53;1.00;;;;;;;;;;10387474;28;20166;-84
2021/10/07 16:32:27;;;;;;;1.80;1.00;;;;;;;;;;10379792;28;20026;-83
2021/10/07 16:37:28;;;;;;;2.85;1.10;;;;;;;;;;10390496;28;20067;-87
2021/10/07 16:42:28;;;;;;;4.00;1.27;;;;;;;;;;10377822;28;20116;-85
2021/10/07 16:47:29;;;;;;;5.30;1.03;;;;;;;;;;10381980;28;20419;-81
2021/10/07 16:52:29;;;;;;;3.73;0.90;;;;;;;;;;10370647;28;20038;-88
2021/10/07 16:57:29;;;;;;;2.50;1.10;;;;;;;;;;10388507;28;20120;-83
2021/10/07 17:02:30;;;;;;;1.57;0.83;;;;;;;;;;10381915;28;20435;-86
2021/10/07 17:07:30;;;;;;;4.87;1.40;;;;;;;;;;10372176;28;20111;-82
2021/10/07 17:12:31;;;;;;;1.70;1.00;;;;;;;;;;10378265;28;20207;-89
2021/10/07 17:17:32;;;;;;;5.30;1.25;;;;;;;;;;10373658;28;20026;-89
2021/10/07 17:22:32;;;;;;;2.83;1.05;;;;;;;;;;10376919;28;20053;-88
2021/10/07 17:27:39;;;;;;;4.47;1.33;;;;;;;;;;10384052;28;20033;-89
2021/10/07 17:32:40;;;;;;;6.68;1.63;;;;;;;;;;10378293;28;20124;-89
2021/10/07 17:37:42;;;;;;;6.68;1.63;;;;;;;;;;10390733;28;20480;-88
2021/10/07 17:42:43;;;;;;;10.18;1.50;;;;;;;;;;10368124;28;20461;-89
2021/10/07 17:47:43;;;;;;;3.95;1.10;;;;;;;;;;10374041;28;20034;-89
2021/10/07 17:52:44;;;;;;;2.80;1.40;;;;;;;;;;10371847;28;20038;-88
2021/10/07 17:57:45;;;;;;;5.03;1.30;;;;;;;;;;10391783;28;20036;-88
2021/10/07 18:02:46;;;;;;;3.23;0.93;;;;;;;;;;10360618;28;20044;-89
2021/10/07 18:07:46;;;;;;;4.07;1.20;;;;;;;;;;10371107;28;20534;-91
2021/10/07 18:12:47;;;;;;;6.80;1.58;;;;;;;;;;10373843;28;20469;-89
2021/10/07 18:17:47;;;;;;;4.77;1.20;;;;;;;;;;10363909;28;20022;-89
2021/10/07 18:22:51;;;;;;;12.00;1.50;;;;;;;;;;10371375;28;21000;-89
2021/10/07 18:27:57;;;;;;;3.80;1.20;;;;;;;;;;10348598;28;20045;-89
2021/10/07 18:32:58;;;;;;;3.80;1.20;;;;;;;;;;10356587;28;20030;-88
2021/10/07 18:37:58;;;;;;;2.80;1.40;;;;;;;;;;10361284;28;20125;-88
2021/10/07 18:42:59;;;;;;;6.50;1.47;;;;;;;;;;10361233;28;20598;-88
2021/10/07 18:47:59;;;;;;;2.10;1.25;;;;;;;;;;10372232;28;20470;-89
2021/10/07 18:53:00;;;;;;;3.70;1.10;;;;;;;;;;10388890;28;20115;-89
2021/10/07 18:58:00;;;;;;;2.73;1.00;;;;;;;;;;10369548;28;20490;-89
2021/10/07 19:03:00;;;;;;;2.33;1.23;;;;;;;;;;10372622;28;20383;-89
2021/10/07 19:08:01;;;;;;;4.33;1.30;;;;;;;;;;10381576;28;20045;-88
2021/10/07 19:13:01;;;;;;;4.63;1.40;;;;;;;;;;10381035;28;20054;-89
2021/10/07 19:18:02;;;;;;;7.45;1.20;;;;;;;;;;10380478;28;20892;-88
2021/10/07 19:23:03;;;;;;;3.08;1.13;;;;;;;;;;10381461;28;20072;-89
2021/10/07 19:28:03;;;;;;;3.60;1.20;;;;;;;;;;10358761;28;20555;-89
2021/10/07 19:33:04;;;;;;;8.65;1.45;;;;;;;;;;10378781;28;20021;-86
2021/10/07 19:38:04;;;;;;;5.53;1.47;;;;;;;;;;10376425;28;20032;-86
2021/10/07 19:43:21;;;;;;;4.28;1.00;;;;;;;;;;10546091;23;20402;-82
2021/10/07 19:48:21;;;;;;;6.00;1.75;;;;;;;;;;10415515;28;20085;-80
2021/10/07 19:53:22;;;;;;;4.55;1.50;;;;;;;;;;10417079;28;20120;-81
2021/10/07 19:58:22;;;;;;;3.83;1.37;;;;;;;;;;10417997;28;20440;-81
2021/10/07 20:03:22;;;;;;;2.27;1.00;;;;;;;;;;10416224;28;20462;-80
2021/10/07 20:08:23;;;;;;;5.37;1.50;;;;;;;;;;10416683;28;20478;-80
2021/10/07 20:13:23;;;;;;;3.27;1.40;;;;;;;;;;10414091;28;20021;-80
2021/10/07 20:18:23;;;;;;;7.87;1.23;;;;;;;;;;10415413;28;20484;-80
2021/10/07 20:23:24;;;;;;;7.40;1.57;;;;;;;;;;10416893;28;20037;-81
2021/10/07 20:28:25;;;;;;;3.95;1.15;;;;;;;;;;10416455;28;20467;-80
2021/10/07 20:33:39;;;;;;;3.37;1.10;;;;;;;;;;10410090;28;20036;-79
2021/10/07 20:38:40;;;;;;;5.40;1.10;;;;;;;;;;10408916;28;20454;-78
2021/10/07 20:43:41;;;;;;;3.20;1.43;;;;;;;;;;10414532;28;20042;-79
2021/10/07 20:48:41;;;;;;;8.77;1.98;;;;;;;;;;10410574;28;20183;-80
2021/10/07 20:53:42;;;;;;;10.93;2.43;;;;;;;;;;10416055;28;20034;-80
2021/10/07 20:58:42;;;;;;;29.90;2.88;;;;;;;;;;10415505;28;20029;-78
2021/10/07 21:03:42;;;;;;;8.25;1.85;;;;;;;;;;10418247;28;20037;-79
2021/10/07 21:08:43;;;;;;;8.83;1.67;;;;;;;;;;10416447;28;20079;-81
2021/10/07 21:13:43;;;;;;;15.37;2.53;;;;;;;;;;10416699;28;20029;-79
2021/10/07 21:18:43;;;;;;;17.73;2.00;;;;;;;;;;10411805;28;20041;-79
2021/10/07 21:23:44;;;;;;;8.00;2.37;;;;;;;;;;10409668;28;20055;-79
2021/10/07 21:28:44;;;;;;;10.67;2.60;;;;;;;;;;10399667;28;20121;-80
2021/10/07 21:33:45;;;;;;;6.90;1.67;;;;;;;;;;10404371;28;20060;-79
2021/10/07 21:38:45;;;;;;;14.93;1.97;;;;;;;;;;10410633;28;20022;-82
2021/10/07 21:43:45;;;;;;;11.07;2.23;;;;;;;;;;10413140;28;20546;-79
2021/10/07 21:48:46;;;;;;;8.98;2.17;;;;;;;;;;10410764;28;20033;-79
2021/10/07 21:53:46;;;;;;;6.73;1.87;;;;;;;;;;10414469;28;20186;-79
2021/10/07 21:58:47;;;;;;;9.97;2.17;;;;;;;;;;10415143;28;20466;-80
2021/10/07 22:03:47;;;;;;;6.80;1.87;;;;;;;;;;10414256;28;20524;-79
2021/10/07 22:08:48;;;;;;;6.63;1.87;;;;;;;;;;10410492;28;20034;-79
2021/10/07 22:13:48;;;;;;;6.03;1.45;;;;;;;;;;10412962;28;20040;-81
2021/10/07 22:18:49;;;;;;;10.67;1.93;;;;;;;;;;10396177;28;20056;-80
2021/10/07 22:23:49;;;;;;;9.00;2.43;;;;;;;;;;10373979;28;20384;-79
2021/10/07 22:28:50;;;;;;;10.18;2.13;;;;;;;;;;10387402;28;20458;-80
2021/10/07 22:33:51;;;;;;;11.17;2.73;;;;;;;;;;10387162;28;20034;-80
2021/10/07 22:38:51;;;;;;;14.05;2.25;;;;;;;;;;10386071;28;20452;-78
2021/10/07 22:43:51;;;;;;;15.03;2.37;;;;;;;;;;10385063;28;20103;-79
2021/10/07 22:48:52;;;;;;;18.07;2.70;;;;;;;;;;10389646;28;20814;-80
2021/10/07 22:53:52;;;;;;;22.60;2.92;;;;;;;;;;10386842;28;20462;-80
2021/10/07 22:58:53;;;;;;;11.20;2.27;;;;;;;;;;10414243;28;20117;-80
2021/10/07 23:03:54;;;;;;;17.23;2.95;;;;;;;;;;10415445;28;21091;-80
2021/10/07 23:08:54;;;;;;;15.37;2.40;;;;;;;;;;10420396;28;20456;-80
2021/10/07 23:13:54;;;;;;;17.40;2.47;;;;;;;;;;10395703;28;20095;-82
2021/10/07 23:18:55;;;;;;;14.50;2.00;;;;;;;;;;10385829;28;20026;-81
2021/10/07 23:23:55;;;;;;;11.43;2.35;;;;;;;;;;10408338;28;20027;-81
2021/10/07 23:28:56;;;;;;;8.13;2.33;;;;;;;;;;10394382;28;20124;-80
2021/10/07 23:33:57;;;;;;;5.75;1.85;;;;;;;;;;10394003;28;20383;-80
2021/10/07 23:38:57;;;;;;;9.57;2.30;;;;;;;;;;10385988;28;20041;-80
2021/10/07 23:43:57;;;;;;;5.90;1.70;;;;;;;;;;10380121;28;20478;-80
2021/10/07 23:48:58;;;;;;;9.00;2.03;;;;;;;;;;10378606;28;20189;-80
2021/10/07 23:53:58;;;;;;;4.87;1.87;;;;;;;;;;10378603;28;20532;-80
2021/10/07 23:58:58;;;;;;;6.93;1.90;;;;;;;;;;10373370;28;20030;-80
